sensor_id;sensor_type;location;lat;lon;timestamp;pressure;altitude;pressure_sealevel;temperature;humidity
65376;BME280;51976;47.332;9.404;2023-04-22T00:00:19;92116.75;;;8.71;70.56
65376;BME280;51976;47.332;9.404;2023-04-22T00:02:44;92080.31;;;8.17;71.68
65376;BME280;51976;47.332;9.404;2023-04-22T00:05:10;92090.69;;;8.24;71.78
65376;BME280;51976;47.332;9.404;2023-04-22T00:07:41;92113.16;;;8.57;70.98
65376;BME280;51976;47.332;9.404;2023-04-22T00:10:08;92128.53;;;8.75;70.57
65376;BME280;51976;47.332;9.404;2023-04-22T00:12:34;92152.63;;;8.80;70.93
65376;BME280;51976;47.332;9.404;2023-04-22T00:14:59;92107.72;;;8.43;70.82
65376;BME280;51976;47.332;9.404;2023-04-22T00:17:25;92150.16;;;8.65;71.07
65376;BME280;51976;47.332;9.404;2023-04-22T00:19:50;92142.09;;;8.65;70.96
65376;BME280;51976;47.332;9.404;2023-04-22T00:22:17;92101.88;;;8.31;71.40
65376;BME280;51976;47.332;9.404;2023-04-22T00:24:42;92081.91;;;8.18;71.36
65376;BME280;51976;47.332;9.404;2023-04-22T00:27:08;92101.09;;;8.30;71.38
65376;BME280;51976;47.332;9.404;2023-04-22T00:29:33;92161.56;;;8.52;71.48
65376;BME280;51976;47.332;9.404;2023-04-22T00:31:59;92150.03;;;8.51;71.41
65376;BME280;51976;47.332;9.404;2023-04-22T00:34:24;92131.59;;;8.44;71.05
65376;BME280;51976;47.332;9.404;2023-04-22T00:36:50;92109.75;;;8.22;70.91
65376;BME280;51976;47.332;9.404;2023-04-22T00:39:16;92148.59;;;8.59;70.58
65376;BME280;51976;47.332;9.404;2023-04-22T00:41:42;92148.66;;;8.54;70.37
65376;BME280;51976;47.332;9.404;2023-04-22T00:44:08;92093.16;;;8.20;70.35
65376;BME280;51976;47.332;9.404;2023-04-22T00:46:36;92140.34;;;8.26;71.21
65376;BME280;51976;47.332;9.404;2023-04-22T00:49:01;92139.81;;;8.24;71.04
65376;BME280;51976;47.332;9.404;2023-04-22T00:51:27;92134.16;;;8.02;71.61
65376;BME280;51976;47.332;9.404;2023-04-22T00:53:52;92077.06;;;7.67;71.33
65376;BME280;51976;47.332;9.404;2023-04-22T00:56:19;92142.63;;;7.85;71.85
65376;BME280;51976;47.332;9.404;2023-04-22T00:58:44;92084.53;;;7.70;71.21
65376;BME280;51976;47.332;9.404;2023-04-22T01:01:10;92103.78;;;7.77;70.98
65376;BME280;51976;47.332;9.404;2023-04-22T01:03:37;92141.88;;;8.08;70.67
65376;BME280;51976;47.332;9.404;2023-04-22T01:06:04;92112.72;;;7.97;70.43
65376;BME280;51976;47.332;9.404;2023-04-22T01:08:31;92111.91;;;7.96;70.35
65376;BME280;51976;47.332;9.404;2023-04-22T01:10:57;92113.88;;;7.91;70.48
65376;BME280;51976;47.332;9.404;2023-04-22T01:13:23;92047.06;;;7.36;70.29
65376;BME280;51976;47.332;9.404;2023-04-22T01:15:49;92111.81;;;7.82;70.28
65376;BME280;51976;47.332;9.404;2023-04-22T01:18:15;92073.41;;;7.58;70.28
65376;BME280;51976;47.332;9.404;2023-04-22T01:20:40;92119.97;;;7.67;70.65
65376;BME280;51976;47.332;9.404;2023-04-22T01:23:15;92091.13;;;7.20;71.55
65376;BME280;51976;47.332;9.404;2023-04-22T01:25:41;92094.00;;;7.34;71.71
65376;BME280;51976;47.332;9.404;2023-04-22T01:28:07;92116.59;;;7.57;71.40
65376;BME280;51976;47.332;9.404;2023-04-22T01:30:33;92139.00;;;7.71;70.57
65376;BME280;51976;47.332;9.404;2023-04-22T01:32:59;92091.72;;;7.46;70.51
65376;BME280;51976;47.332;9.404;2023-04-22T01:35:24;92056.00;;;7.22;70.79
65376;BME280;51976;47.332;9.404;2023-04-22T01:37:50;92132.09;;;7.65;71.05
65376;BME280;51976;47.332;9.404;2023-04-22T01:40:15;92122.78;;;7.52;70.98
65376;BME280;51976;47.332;9.404;2023-04-22T01:42:44;92080.09;;;7.27;70.72
65376;BME280;51976;47.332;9.404;2023-04-22T01:45:10;92125.69;;;7.61;70.66
65376;BME280;51976;47.332;9.404;2023-04-22T01:47:37;92070.69;;;7.29;70.45
65376;BME280;51976;47.332;9.404;2023-04-22T01:50:02;92080.25;;;7.06;70.90
65376;BME280;51976;47.332;9.404;2023-04-22T01:52:29;92127.44;;;7.41;70.38
65376;BME280;51976;47.332;9.404;2023-04-22T01:54:55;92102.75;;;7.10;70.20
65376;BME280;51976;47.332;9.404;2023-04-22T01:57:21;92098.22;;;7.06;70.72
65376;BME280;51976;47.332;9.404;2023-04-22T01:59:47;92045.16;;;6.64;70.71
65376;BME280;51976;47.332;9.404;2023-04-22T02:02:12;92046.75;;;6.70;70.51
65376;BME280;51976;47.332;9.404;2023-04-22T02:04:38;92108.53;;;7.23;70.29
65376;BME280;51976;47.332;9.404;2023-04-22T02:07:03;92113.63;;;7.24;70.14
65376;BME280;51976;47.332;9.404;2023-04-22T02:09:28;92080.06;;;6.98;70.58
65376;BME280;51976;47.332;9.404;2023-04-22T02:11:54;92115.13;;;7.01;70.80
65376;BME280;51976;47.332;9.404;2023-04-22T02:14:19;92060.47;;;6.58;71.02
65376;BME280;51976;47.332;9.404;2023-04-22T02:16:45;92133.50;;;6.79;71.44
65376;BME280;51976;47.332;9.404;2023-04-22T02:19:10;92144.13;;;6.89;71.05
65376;BME280;51976;47.332;9.404;2023-04-22T02:21:35;92135.56;;;6.87;70.71
65376;BME280;51976;47.332;9.404;2023-04-22T02:24:01;92103.25;;;6.73;70.58
65376;BME280;51976;47.332;9.404;2023-04-22T02:26:26;92094.59;;;6.37;71.09
65376;BME280;51976;47.332;9.404;2023-04-22T02:28:52;92097.38;;;6.02;72.45
65376;BME280;51976;47.332;9.404;2023-04-22T02:31:17;92115.41;;;6.51;71.46
65376;BME280;51976;47.332;9.404;2023-04-22T02:33:43;92050.75;;;6.28;70.92
65376;BME280;51976;47.332;9.404;2023-04-22T02:36:08;92026.97;;;6.17;70.72
65376;BME280;51976;47.332;9.404;2023-04-22T02:38:34;92052.63;;;6.28;70.26
65376;BME280;51976;47.332;9.404;2023-04-22T02:40:59;92080.69;;;6.30;71.19
65376;BME280;51976;47.332;9.404;2023-04-22T02:43:25;92136.47;;;6.67;71.26
65376;BME280;51976;47.332;9.404;2023-04-22T02:45:50;92125.00;;;6.57;71.32
65376;BME280;51976;47.332;9.404;2023-04-22T02:48:15;92131.88;;;6.78;70.24
65376;BME280;51976;47.332;9.404;2023-04-22T02:50:41;92135.16;;;6.65;70.60
65376;BME280;51976;47.332;9.404;2023-04-22T02:53:07;92065.25;;;6.12;70.21
65376;BME280;51976;47.332;9.404;2023-04-22T02:55:33;92101.63;;;6.18;70.64
65376;BME280;51976;47.332;9.404;2023-04-22T02:57:58;92106.19;;;6.18;70.26
65376;BME280;51976;47.332;9.404;2023-04-22T03:00:23;92140.03;;;6.53;69.79
65376;BME280;51976;47.332;9.404;2023-04-22T03:02:49;92139.28;;;6.32;70.47
65376;BME280;51976;47.332;9.404;2023-04-22T03:05:14;92143.25;;;6.55;69.83
65376;BME280;51976;47.332;9.404;2023-04-22T03:07:40;92093.22;;;6.40;69.13
65376;BME280;51976;47.332;9.404;2023-04-22T03:10:06;92051.44;;;5.90;69.14
65376;BME280;51976;47.332;9.404;2023-04-22T03:12:31;92128.31;;;6.33;69.53
65376;BME280;51976;47.332;9.404;2023-04-22T03:14:57;92093.34;;;6.15;69.09
65376;BME280;51976;47.332;9.404;2023-04-22T03:17:22;92061.22;;;6.20;68.47
65376;BME280;51976;47.332;9.404;2023-04-22T03:19:48;92063.63;;;6.16;68.31
65376;BME280;51976;47.332;9.404;2023-04-22T03:22:13;92110.59;;;6.53;68.14
65376;BME280;51976;47.332;9.404;2023-04-22T03:24:38;92138.09;;;6.63;68.36
65376;BME280;51976;47.332;9.404;2023-04-22T03:27:04;92123.94;;;6.58;68.16
65376;BME280;51976;47.332;9.404;2023-04-22T03:29:31;92104.75;;;6.40;68.40
65376;BME280;51976;47.332;9.404;2023-04-22T03:31:56;92133.28;;;6.60;68.41
65376;BME280;51976;47.332;9.404;2023-04-22T03:34:21;92114.63;;;6.50;68.04
65376;BME280;51976;47.332;9.404;2023-04-22T03:36:47;92113.84;;;6.44;68.24
65376;BME280;51976;47.332;9.404;2023-04-22T03:39:12;92083.13;;;6.27;68.26
65376;BME280;51976;47.332;9.404;2023-04-22T03:41:38;92136.78;;;6.61;68.21
65376;BME280;51976;47.332;9.404;2023-04-22T03:44:03;92122.13;;;6.48;68.28
65376;BME280;51976;47.332;9.404;2023-04-22T03:46:29;92140.25;;;6.61;68.07
65376;BME280;51976;47.332;9.404;2023-04-22T03:48:54;92113.38;;;6.27;68.58
65376;BME280;51976;47.332;9.404;2023-04-22T03:51:19;92118.69;;;6.32;68.40
65376;BME280;51976;47.332;9.404;2023-04-22T03:53:45;92042.88;;;5.77;68.40
65376;BME280;51976;47.332;9.404;2023-04-22T03:56:10;92142.25;;;6.30;68.53
65376;BME280;51976;47.332;9.404;2023-04-22T03:58:36;92054.91;;;5.90;68.14
65376;BME280;51976;47.332;9.404;2023-04-22T04:01:01;92138.16;;;6.53;68.01
65376;BME280;51976;47.332;9.404;2023-04-22T04:03:26;92120.25;;;6.43;67.42
65376;BME280;51976;47.332;9.404;2023-04-22T04:05:52;92113.94;;;6.14;68.10
65376;BME280;51976;47.332;9.404;2023-04-22T04:08:18;92135.63;;;6.02;69.32
65376;BME280;51976;47.332;9.404;2023-04-22T04:10:43;92051.47;;;5.64;68.48
65376;BME280;51976;47.332;9.404;2023-04-22T04:13:09;92023.19;;;5.38;68.63
65376;BME280;51976;47.332;9.404;2023-04-22T04:15:35;92100.66;;;5.89;68.37
65376;BME280;51976;47.332;9.404;2023-04-22T04:18:01;92052.53;;;5.73;68.21
65376;BME280;51976;47.332;9.404;2023-04-22T04:20:28;92147.31;;;6.42;67.74
65376;BME280;51976;47.332;9.404;2023-04-22T04:22:53;92161.56;;;6.27;68.13
65376;BME280;51976;47.332;9.404;2023-04-22T04:25:18;92133.47;;;6.15;68.17
65376;BME280;51976;47.332;9.404;2023-04-22T04:27:45;92125.47;;;6.09;68.00
65376;BME280;51976;47.332;9.404;2023-04-22T04:30:11;92128.41;;;6.13;67.43
65376;BME280;51976;47.332;9.404;2023-04-22T04:32:37;92132.16;;;6.12;67.38
65376;BME280;51976;47.332;9.404;2023-04-22T04:35:03;92090.50;;;5.60;67.71
65376;BME280;51976;47.332;9.404;2023-04-22T04:37:29;92141.84;;;5.62;68.53
65376;BME280;51976;47.332;9.404;2023-04-22T04:39:54;92146.66;;;5.60;68.46
65376;BME280;51976;47.332;9.404;2023-04-22T04:42:23;92156.28;;;5.97;67.80
65376;BME280;51976;47.332;9.404;2023-04-22T04:44:49;92142.91;;;5.92;67.83
65376;BME280;51976;47.332;9.404;2023-04-22T04:47:15;92139.97;;;5.98;66.90
65376;BME280;51976;47.332;9.404;2023-04-22T04:49:40;92065.38;;;5.61;66.79
65376;BME280;51976;47.332;9.404;2023-04-22T04:52:05;92148.75;;;6.04;66.84
65376;BME280;51976;47.332;9.404;2023-04-22T04:54:34;92162.13;;;6.09;67.03
65376;BME280;51976;47.332;9.404;2023-04-22T04:57:00;92116.41;;;5.85;67.00
65376;BME280;51976;47.332;9.404;2023-04-22T04:59:26;92134.59;;;5.88;67.19
65376;BME280;51976;47.332;9.404;2023-04-22T05:01:52;92159.47;;;5.84;66.67
65376;BME280;51976;47.332;9.404;2023-04-22T05:04:17;92158.09;;;6.17;66.21
65376;BME280;51976;47.332;9.404;2023-04-22T05:06:43;92125.50;;;5.84;66.68
65376;BME280;51976;47.332;9.404;2023-04-22T05:09:08;92124.19;;;5.51;67.68
65376;BME280;51976;47.332;9.404;2023-04-22T05:11:34;92169.59;;;6.12;67.00
65376;BME280;51976;47.332;9.404;2023-04-22T05:13:59;92153.56;;;5.87;67.51
65376;BME280;51976;47.332;9.404;2023-04-22T05:16:25;92180.84;;;6.24;67.30
65376;BME280;51976;47.332;9.404;2023-04-22T05:18:50;92128.41;;;6.03;66.39
65376;BME280;51976;47.332;9.404;2023-04-22T05:21:16;92135.81;;;6.31;66.26
65376;BME280;51976;47.332;9.404;2023-04-22T05:23:41;92086.66;;;6.07;65.84
65376;BME280;51976;47.332;9.404;2023-04-22T05:26:06;92109.63;;;6.23;65.82
65376;BME280;51976;47.332;9.404;2023-04-22T05:28:32;92115.66;;;5.59;65.87
65376;BME280;51976;47.332;9.404;2023-04-22T05:30:57;92136.94;;;6.25;63.52
65376;BME280;51976;47.332;9.404;2023-04-22T05:33:22;92116.00;;;6.37;63.47
65376;BME280;51976;47.332;9.404;2023-04-22T05:35:48;92106.47;;;6.70;62.97
65376;BME280;51976;47.332;9.404;2023-04-22T05:38:15;92129.03;;;7.08;61.69
65376;BME280;51976;47.332;9.404;2023-04-22T05:40:40;92165.22;;;7.06;63.17
65376;BME280;51976;47.332;9.404;2023-04-22T05:43:06;92104.28;;;6.83;63.53
65376;BME280;51976;47.332;9.404;2023-04-22T05:45:32;92149.47;;;7.38;63.35
65376;BME280;51976;47.332;9.404;2023-04-22T05:47:58;92138.75;;;7.38;63.11
65376;BME280;51976;47.332;9.404;2023-04-22T05:50:23;92163.59;;;7.83;63.05
65376;BME280;51976;47.332;9.404;2023-04-22T05:52:49;92144.75;;;7.88;62.56
65376;BME280;51976;47.332;9.404;2023-04-22T05:55:14;92102.38;;;7.56;62.82
65376;BME280;51976;47.332;9.404;2023-04-22T05:57:39;92174.56;;;8.15;62.63
65376;BME280;51976;47.332;9.404;2023-04-22T06:00:05;92179.16;;;8.10;61.83
65376;BME280;51976;47.332;9.404;2023-04-22T06:02:31;92117.16;;;7.82;61.33
65376;BME280;51976;47.332;9.404;2023-04-22T06:04:56;92195.53;;;8.42;61.58
65376;BME280;51976;47.332;9.404;2023-04-22T06:07:21;92150.03;;;8.22;61.28
65376;BME280;51976;47.332;9.404;2023-04-22T06:09:47;92204.72;;;8.36;61.88
65376;BME280;51976;47.332;9.404;2023-04-22T06:12:12;92192.03;;;8.42;62.02
65376;BME280;51976;47.332;9.404;2023-04-22T06:14:38;92103.88;;;7.96;61.68
65376;BME280;51976;47.332;9.404;2023-04-22T06:17:03;92158.97;;;8.46;61.68
65376;BME280;51976;47.332;9.404;2023-04-22T06:19:28;92202.00;;;8.89;61.32
65376;BME280;51976;47.332;9.404;2023-04-22T06:21:54;92160.94;;;8.83;61.13
65376;BME280;51976;47.332;9.404;2023-04-22T06:24:20;92209.03;;;9.28;61.09
65376;BME280;51976;47.332;9.404;2023-04-22T06:26:46;92205.97;;;9.34;60.56
65376;BME280;51976;47.332;9.404;2023-04-22T06:29:11;92172.38;;;9.32;60.37
65376;BME280;51976;47.332;9.404;2023-04-22T06:31:37;92207.50;;;9.78;59.84
65376;BME280;51976;47.332;9.404;2023-04-22T06:34:02;92177.69;;;9.74;59.17
65376;BME280;51976;47.332;9.404;2023-04-22T06:36:28;92196.25;;;10.08;59.22
65376;BME280;51976;47.332;9.404;2023-04-22T06:38:54;92153.41;;;9.61;57.74
65376;BME280;51976;47.332;9.404;2023-04-22T06:41:20;92137.75;;;9.63;56.81
65376;BME280;51976;47.332;9.404;2023-04-22T06:43:46;92192.63;;;9.99;56.59
65376;BME280;51976;47.332;9.404;2023-04-22T06:46:14;92200.75;;;10.13;56.74
65376;BME280;51976;47.332;9.404;2023-04-22T06:48:40;92183.69;;;10.04;55.63
65376;BME280;51976;47.332;9.404;2023-04-22T06:51:05;92200.41;;;10.01;58.23
65376;BME280;51976;47.332;9.404;2023-04-22T06:53:31;92175.84;;;9.89;58.33
65376;BME280;51976;47.332;9.404;2023-04-22T06:55:56;92118.50;;;9.56;57.84
65376;BME280;51976;47.332;9.404;2023-04-22T06:58:21;92155.53;;;9.96;57.52
65376;BME280;51976;47.332;9.404;2023-04-22T07:00:47;92192.47;;;10.42;57.14
65376;BME280;51976;47.332;9.404;2023-04-22T07:03:12;92162.44;;;10.16;57.96
65376;BME280;51976;47.332;9.404;2023-04-22T07:05:38;92127.88;;;9.91;57.49
65376;BME280;51976;47.332;9.404;2023-04-22T07:08:03;92141.66;;;10.22;56.89
65376;BME280;51976;47.332;9.404;2023-04-22T07:10:28;92183.44;;;10.79;56.62
65376;BME280;51976;47.332;9.404;2023-04-22T07:12:54;92171.16;;;10.87;56.15
65376;BME280;51976;47.332;9.404;2023-04-22T07:15:20;92155.56;;;11.11;55.83
65376;BME280;51976;47.332;9.404;2023-04-22T07:17:45;92137.41;;;10.89;55.08
65376;BME280;51976;47.332;9.404;2023-04-22T07:20:11;92144.47;;;10.99;55.45
65376;BME280;51976;47.332;9.404;2023-04-22T07:22:36;92179.97;;;11.42;55.77
65376;BME280;51976;47.332;9.404;2023-04-22T07:25:02;92142.00;;;11.74;55.18
65376;BME280;51976;47.332;9.404;2023-04-22T07:27:28;92119.97;;;11.81;55.05
65376;BME280;51976;47.332;9.404;2023-04-22T07:29:53;92167.69;;;12.30;54.78
65376;BME280;51976;47.332;9.404;2023-04-22T07:32:19;92137.66;;;12.40;54.31
65376;BME280;51976;47.332;9.404;2023-04-22T07:34:44;92128.56;;;12.67;53.06
65376;BME280;51976;47.332;9.404;2023-04-22T07:37:09;92117.84;;;12.93;51.98
65376;BME280;51976;47.332;9.404;2023-04-22T07:39:35;92087.91;;;12.41;51.70
65376;BME280;51976;47.332;9.404;2023-04-22T07:42:00;92114.81;;;12.46;52.23
65376;BME280;51976;47.332;9.404;2023-04-22T07:44:26;92157.25;;;13.16;51.47
65376;BME280;51976;47.332;9.404;2023-04-22T07:46:51;92087.19;;;13.06;50.54
65376;BME280;51976;47.332;9.404;2023-04-22T07:49:18;92156.69;;;13.37;50.90
65376;BME280;51976;47.332;9.404;2023-04-22T07:51:44;92089.72;;;13.11;50.00
65376;BME280;51976;47.332;9.404;2023-04-22T07:54:09;92155.28;;;13.65;49.89
65376;BME280;51976;47.332;9.404;2023-04-22T07:56:35;92112.41;;;13.84;49.16
65376;BME280;51976;47.332;9.404;2023-04-22T07:59:01;92153.28;;;14.69;48.33
65376;BME280;51976;47.332;9.404;2023-04-22T08:01:26;92148.16;;;14.76;47.52
65376;BME280;51976;47.332;9.404;2023-04-22T08:03:52;92126.31;;;14.73;47.68
65376;BME280;51976;47.332;9.404;2023-04-22T08:06:17;92107.75;;;15.13;46.99
65376;BME280;51976;47.332;9.404;2023-04-22T08:08:43;92146.38;;;15.48;45.83
65376;BME280;51976;47.332;9.404;2023-04-22T08:11:08;92105.06;;;15.34;44.68
65376;BME280;51976;47.332;9.404;2023-04-22T08:13:33;92111.16;;;15.60;43.87
65376;BME280;51976;47.332;9.404;2023-04-22T08:16:00;92135.38;;;15.74;42.47
65376;BME280;51976;47.332;9.404;2023-04-22T08:18:27;92114.63;;;15.69;42.58
65376;BME280;51976;47.332;9.404;2023-04-22T08:20:53;92123.66;;;16.15;42.32
65376;BME280;51976;47.332;9.404;2023-04-22T08:23:18;92122.09;;;15.93;42.18
65376;BME280;51976;47.332;9.404;2023-04-22T08:25:44;92120.81;;;16.32;42.11
65376;BME280;51976;47.332;9.404;2023-04-22T08:28:09;92112.63;;;15.99;43.77
65376;BME280;51976;47.332;9.404;2023-04-22T08:30:35;92141.50;;;15.62;46.17
65376;BME280;51976;47.332;9.404;2023-04-22T08:33:00;92102.56;;;15.29;47.95
65376;BME280;51976;47.332;9.404;2023-04-22T08:35:26;92111.72;;;15.15;49.10
65376;BME280;51976;47.332;9.404;2023-04-22T08:37:51;92081.59;;;15.08;49.35
65376;BME280;51976;47.332;9.404;2023-04-22T08:40:16;92066.16;;;15.00;50.16
65376;BME280;51976;47.332;9.404;2023-04-22T08:42:43;92099.13;;;15.40;49.89
65376;BME280;51976;47.332;9.404;2023-04-22T08:45:09;92103.16;;;15.34;48.97
65376;BME280;51976;47.332;9.404;2023-04-22T08:47:36;92086.66;;;15.39;48.33
65376;BME280;51976;47.332;9.404;2023-04-22T08:50:02;92098.31;;;15.40;48.39
65376;BME280;51976;47.332;9.404;2023-04-22T08:52:31;92115.56;;;15.44;48.53
65376;BME280;51976;47.332;9.404;2023-04-22T08:54:57;92118.06;;;15.28;49.25
65376;BME280;51976;47.332;9.404;2023-04-22T08:57:22;92143.31;;;15.58;50.19
65376;BME280;51976;47.332;9.404;2023-04-22T08:59:52;92117.53;;;15.35;50.69
65376;BME280;51976;47.332;9.404;2023-04-22T09:02:20;92097.53;;;15.10;51.44
65376;BME280;51976;47.332;9.404;2023-04-22T09:04:47;92106.16;;;15.12;51.70
65376;BME280;51976;47.332;9.404;2023-04-22T09:07:22;92132.97;;;15.43;51.88
65376;BME280;51976;47.332;9.404;2023-04-22T09:09:49;92082.81;;;14.90;50.84
65376;BME280;51976;47.332;9.404;2023-04-22T09:12:14;92099.28;;;15.14;50.93
65376;BME280;51976;47.332;9.404;2023-04-22T09:14:43;92096.25;;;15.37;50.74
65376;BME280;51976;47.332;9.404;2023-04-22T09:17:08;92141.97;;;15.35;50.92
65376;BME280;51976;47.332;9.404;2023-04-22T09:19:34;92127.91;;;15.33;51.78
65376;BME280;51976;47.332;9.404;2023-04-22T09:22:00;92108.19;;;15.23;51.61
65376;BME280;51976;47.332;9.404;2023-04-22T09:24:26;92127.25;;;15.36;51.74
65376;BME280;51976;47.332;9.404;2023-04-22T09:26:54;92140.28;;;15.51;51.58
65376;BME280;51976;47.332;9.404;2023-04-22T09:29:19;92108.25;;;15.06;53.15
65376;BME280;51976;47.332;9.404;2023-04-22T09:31:49;92079.44;;;14.93;52.80
65376;BME280;51976;47.332;9.404;2023-04-22T09:34:14;92087.13;;;15.20;52.73
65376;BME280;51976;47.332;9.404;2023-04-22T09:36:42;92105.00;;;15.21;53.23
65376;BME280;51976;47.332;9.404;2023-04-22T09:39:08;92076.63;;;15.10;52.83
65376;BME280;51976;47.332;9.404;2023-04-22T09:41:38;92103.41;;;15.20;52.89
65376;BME280;51976;47.332;9.404;2023-04-22T09:44:08;92103.47;;;15.33;52.84
65376;BME280;51976;47.332;9.404;2023-04-22T09:46:34;92113.69;;;15.36;52.61
65376;BME280;51976;47.332;9.404;2023-04-22T09:49:00;92133.06;;;15.55;53.45
65376;BME280;51976;47.332;9.404;2023-04-22T09:51:27;92111.13;;;15.39;53.59
65376;BME280;51976;47.332;9.404;2023-04-22T09:54:00;92142.06;;;15.76;53.56
65376;BME280;51976;47.332;9.404;2023-04-22T09:56:50;92106.09;;;15.50;53.48
65376;BME280;51976;47.332;9.404;2023-04-22T09:59:28;92080.38;;;15.47;53.20
65376;BME280;51976;47.332;9.404;2023-04-22T10:01:56;92099.88;;;15.49;54.24
65376;BME280;51976;47.332;9.404;2023-04-22T10:04:22;92076.31;;;15.33;53.92
65376;BME280;51976;47.332;9.404;2023-04-22T10:06:50;92100.38;;;15.43;54.26
65376;BME280;51976;47.332;9.404;2023-04-22T10:09:17;92125.53;;;15.61;54.48
65376;BME280;51976;47.332;9.404;2023-04-22T10:11:44;92142.78;;;15.65;55.21
65376;BME280;51976;47.332;9.404;2023-04-22T10:14:09;92115.19;;;15.54;54.99
65376;BME280;51976;47.332;9.404;2023-04-22T10:16:38;92108.06;;;15.41;54.99
65376;BME280;51976;47.332;9.404;2023-04-22T10:19:06;92113.75;;;15.56;54.80
65376;BME280;51976;47.332;9.404;2023-04-22T10:21:33;92104.81;;;15.56;54.84
65376;BME280;51976;47.332;9.404;2023-04-22T10:23:59;92076.53;;;15.57;54.78
65376;BME280;51976;47.332;9.404;2023-04-22T10:26:45;92140.59;;;16.00;54.51
65376;BME280;51976;47.332;9.404;2023-04-22T10:29:15;92102.47;;;15.67;54.19
65376;BME280;51976;47.332;9.404;2023-04-22T10:31:42;92087.56;;;15.73;55.16
65376;BME280;51976;47.332;9.404;2023-04-22T10:34:12;92107.56;;;15.89;55.11
65376;BME280;51976;47.332;9.404;2023-04-22T10:36:54;92112.81;;;15.94;55.09
65376;BME280;51976;47.332;9.404;2023-04-22T10:39:20;92130.13;;;16.10;54.71
65376;BME280;51976;47.332;9.404;2023-04-22T10:42:01;92101.28;;;15.97;54.14
65376;BME280;51976;47.332;9.404;2023-04-22T10:44:45;92079.22;;;15.78;53.95
65376;BME280;51976;47.332;9.404;2023-04-22T10:47:34;92096.97;;;15.96;54.58
65376;BME280;51976;47.332;9.404;2023-04-22T10:50:20;92117.63;;;16.30;54.90
65376;BME280;51976;47.332;9.404;2023-04-22T10:52:54;92068.50;;;15.81;55.19
65376;BME280;51976;47.332;9.404;2023-04-22T10:55:21;92089.56;;;16.38;54.28
65376;BME280;51976;47.332;9.404;2023-04-22T10:57:48;92070.66;;;16.21;54.93
65376;BME280;51976;47.332;9.404;2023-04-22T11:00:22;92091.09;;;16.27;55.05
65376;BME280;51976;47.332;9.404;2023-04-22T11:03:07;92067.53;;;15.98;54.73
65376;BME280;51976;47.332;9.404;2023-04-22T11:05:33;92104.22;;;16.58;54.25
65376;BME280;51976;47.332;9.404;2023-04-22T11:08:06;92110.66;;;16.86;53.90
65376;BME280;51976;47.332;9.404;2023-04-22T11:10:37;92065.53;;;16.52;53.45
65376;BME280;51976;47.332;9.404;2023-04-22T11:13:09;92107.34;;;16.81;53.56
65376;BME280;51976;47.332;9.404;2023-04-22T11:15:38;92120.59;;;16.70;54.15
65376;BME280;51976;47.332;9.404;2023-04-22T11:18:08;92097.25;;;16.81;53.65
65376;BME280;51976;47.332;9.404;2023-04-22T11:20:34;92083.78;;;16.52;53.87
65376;BME280;51976;47.332;9.404;2023-04-22T11:23:01;92098.38;;;16.68;54.34
65376;BME280;51976;47.332;9.404;2023-04-22T11:25:27;92111.53;;;16.78;54.00
65376;BME280;51976;47.332;9.404;2023-04-22T11:27:55;92128.69;;;16.91;54.68
65376;BME280;51976;47.332;9.404;2023-04-22T11:30:23;92071.16;;;16.68;54.24
65376;BME280;51976;47.332;9.404;2023-04-22T11:32:51;92068.88;;;16.70;53.99
65376;BME280;51976;47.332;9.404;2023-04-22T11:35:26;92114.19;;;17.11;54.45
65376;BME280;51976;47.332;9.404;2023-04-22T11:37:57;92066.75;;;16.88;54.25
65376;BME280;51976;47.332;9.404;2023-04-22T11:40:29;92084.88;;;16.96;54.17
65376;BME280;51976;47.332;9.404;2023-04-22T11:42:56;92055.75;;;16.84;54.72
65376;BME280;51976;47.332;9.404;2023-04-22T11:45:21;92075.81;;;16.80;54.19
65376;BME280;51976;47.332;9.404;2023-04-22T11:47:49;92065.84;;;16.84;54.95
65376;BME280;51976;47.332;9.404;2023-04-22T11:50:16;92065.84;;;16.96;55.72
65376;BME280;51976;47.332;9.404;2023-04-22T11:52:56;92049.97;;;17.22;55.04
65376;BME280;51976;47.332;9.404;2023-04-22T11:55:24;92094.88;;;17.41;55.27
65376;BME280;51976;47.332;9.404;2023-04-22T11:58:00;92065.50;;;17.22;54.89
65376;BME280;51976;47.332;9.404;2023-04-22T12:00:31;92061.31;;;16.88;54.71
65376;BME280;51976;47.332;9.404;2023-04-22T12:03:06;92059.38;;;17.13;54.05
65376;BME280;51976;47.332;9.404;2023-04-22T12:05:34;92054.94;;;17.08;54.27
65376;BME280;51976;47.332;9.404;2023-04-22T12:08:01;92076.38;;;17.34;54.38
65376;BME280;51976;47.332;9.404;2023-04-22T12:10:27;92089.09;;;17.42;54.87
65376;BME280;51976;47.332;9.404;2023-04-22T12:12:53;92072.19;;;17.24;54.78
65376;BME280;51976;47.332;9.404;2023-04-22T12:15:18;92114.25;;;17.88;54.59
65376;BME280;51976;47.332;9.404;2023-04-22T12:17:44;92059.25;;;17.34;55.33
65376;BME280;51976;47.332;9.404;2023-04-22T12:20:11;92098.97;;;17.71;54.67
65376;BME280;51976;47.332;9.404;2023-04-22T12:22:37;92092.59;;;17.67;55.04
65376;BME280;51976;47.332;9.404;2023-04-22T12:25:03;92115.66;;;17.70;55.32
65376;BME280;51976;47.332;9.404;2023-04-22T12:27:28;92088.97;;;17.75;54.92
65376;BME280;51976;47.332;9.404;2023-04-22T12:29:56;92038.63;;;17.08;55.03
65376;BME280;51976;47.332;9.404;2023-04-22T12:32:24;92104.09;;;17.48;55.13
65376;BME280;51976;47.332;9.404;2023-04-22T12:34:51;92124.06;;;17.65;54.81
65376;BME280;51976;47.332;9.404;2023-04-22T12:37:17;92089.88;;;17.43;54.71
65376;BME280;51976;47.332;9.404;2023-04-22T12:39:43;92109.88;;;17.35;54.99
65376;BME280;51976;47.332;9.404;2023-04-22T12:42:09;92084.78;;;17.41;55.76
65376;BME280;51976;47.332;9.404;2023-04-22T12:44:34;92104.38;;;17.59;55.74
65376;BME280;51976;47.332;9.404;2023-04-22T12:47:01;92088.75;;;17.44;55.34
65376;BME280;51976;47.332;9.404;2023-04-22T12:49:26;92058.34;;;17.17;56.13
65376;BME280;51976;47.332;9.404;2023-04-22T12:51:52;92100.31;;;17.29;55.97
65376;BME280;51976;47.332;9.404;2023-04-22T12:54:18;92053.00;;;16.97;55.63
65376;BME280;51976;47.332;9.404;2023-04-22T12:56:44;92137.91;;;17.47;56.09
65376;BME280;51976;47.332;9.404;2023-04-22T12:59:10;92130.75;;;17.31;56.41
65376;BME280;51976;47.332;9.404;2023-04-22T13:01:37;92110.09;;;17.17;56.71